sensor_id;sensor_type;location;lat;lon;timestamp;P1;durP1;ratioP1;P2;durP2;ratioP2
25391;SDS011;13329;48.402;11.718;2023-02-15T00:01:11;20.40;;;7.07;;
25391;SDS011;13329;48.402;11.718;2023-02-15T00:03:36;16.27;;;6.90;;
25391;SDS011;13329;48.402;11.718;2023-02-15T00:06:02;22.60;;;7.57;;
25391;SDS011;13329;48.402;11.718;2023-02-15T00:08:27;27.98;;;8.18;;
25391;SDS011;13329;48.402;11.718;2023-02-15T00:10:52;20.13;;;7.78;;
25391;SDS011;13329;48.402;11.718;2023-02-15T00:13:18;17.48;;;7.47;;
25391;SDS011;13329;48.402;11.718;2023-02-15T00:15:43;18.25;;;7.07;;
25391;SDS011;13329;48.402;11.718;2023-02-15T00:18:08;25.23;;;7.90;;
25391;SDS011;13329;48.402;11.718;2023-02-15T00:20:33;16.65;;;6.50;;
25391;SDS011;13329;48.402;11.718;2023-02-15T00:22:59;22.50;;;6.63;;
25391;SDS011;13329;48.402;11.718;2023-02-15T00:25:24;16.90;;;6.90;;
25391;SDS011;13329;48.402;11.718;2023-02-15T00:27:49;16.30;;;6.63;;
25391;SDS011;13329;48.402;11.718;2023-02-15T00:30:15;19.77;;;6.47;;
25391;SDS011;13329;48.402;11.718;2023-02-15T00:32:40;22.08;;;7.60;;
25391;SDS011;13329;48.402;11.718;2023-02-15T00:35:05;20.33;;;7.63;;
25391;SDS011;13329;48.402;11.718;2023-02-15T00:37:31;25.98;;;7.65;;
25391;SDS011;13329;48.402;11.718;2023-02-15T00:39:56;31.07;;;7.87;;
25391;SDS011;13329;48.402;11.718;2023-02-15T00:42:22;18.90;;;7.03;;
25391;SDS011;13329;48.402;11.718;2023-02-15T00:44:47;19.85;;;6.90;;
25391;SDS011;13329;48.402;11.718;2023-02-15T00:47:12;28.53;;;7.40;;
25391;SDS011;13329;48.402;11.718;2023-02-15T00:49:37;21.87;;;7.80;;
25391;SDS011;13329;48.402;11.718;2023-02-15T00:52:02;18.23;;;7.07;;
25391;SDS011;13329;48.402;11.718;2023-02-15T00:54:27;19.30;;;6.53;;
25391;SDS011;13329;48.402;11.718;2023-02-15T00:56:53;23.20;;;7.80;;
25391;SDS011;13329;48.402;11.718;2023-02-15T00:59:18;20.10;;;7.13;;
25391;SDS011;13329;48.402;11.718;2023-02-15T01:01:43;24.53;;;8.70;;
25391;SDS011;13329;48.402;11.718;2023-02-15T01:04:08;22.77;;;7.67;;
25391;SDS011;13329;48.402;11.718;2023-02-15T01:06:33;24.20;;;8.07;;
25391;SDS011;13329;48.402;11.718;2023-02-15T01:08:58;19.38;;;7.88;;
25391;SDS011;13329;48.402;11.718;2023-02-15T01:11:24;23.57;;;8.30;;
25391;SDS011;13329;48.402;11.718;2023-02-15T01:13:50;18.90;;;7.50;;
25391;SDS011;13329;48.402;11.718;2023-02-15T01:16:15;22.27;;;8.75;;
25391;SDS011;13329;48.402;11.718;2023-02-15T01:18:40;21.17;;;7.70;;
25391;SDS011;13329;48.402;11.718;2023-02-15T01:21:09;20.42;;;6.90;;
25391;SDS011;13329;48.402;11.718;2023-02-15T01:23:34;22.40;;;7.43;;
25391;SDS011;13329;48.402;11.718;2023-02-15T01:26:03;20.02;;;7.82;;
25391;SDS011;13329;48.402;11.718;2023-02-15T01:28:28;24.85;;;7.55;;
25391;SDS011;13329;48.402;11.718;2023-02-15T01:30:53;18.05;;;7.10;;
25391;SDS011;13329;48.402;11.718;2023-02-15T01:33:18;26.38;;;7.50;;
25391;SDS011;13329;48.402;11.718;2023-02-15T01:35:44;24.30;;;7.72;;
25391;SDS011;13329;48.402;11.718;2023-02-15T01:38:10;26.15;;;7.80;;
25391;SDS011;13329;48.402;11.718;2023-02-15T01:40:35;26.17;;;7.30;;
25391;SDS011;13329;48.402;11.718;2023-02-15T01:43:00;21.97;;;7.03;;
25391;SDS011;13329;48.402;11.718;2023-02-15T01:45:27;29.88;;;6.82;;
25391;SDS011;13329;48.402;11.718;2023-02-15T01:50:28;22.80;;;7.88;;
25391;SDS011;13329;48.402;11.718;2023-02-15T01:53:05;15.60;;;6.25;;
25391;SDS011;13329;48.402;11.718;2023-02-15T01:55:32;23.25;;;6.97;;
25391;SDS011;13329;48.402;11.718;2023-02-15T01:57:59;19.13;;;7.50;;
25391;SDS011;13329;48.402;11.718;2023-02-15T02:00:24;18.20;;;6.63;;
25391;SDS011;13329;48.402;11.718;2023-02-15T02:02:50;22.35;;;6.40;;
25391;SDS011;13329;48.402;11.718;2023-02-15T02:05:17;28.75;;;7.53;;
25391;SDS011;13329;48.402;11.718;2023-02-15T02:07:43;27.10;;;6.37;;
25391;SDS011;13329;48.402;11.718;2023-02-15T02:10:11;23.65;;;7.57;;
25391;SDS011;13329;48.402;11.718;2023-02-15T02:12:36;16.65;;;6.90;;
25391;SDS011;13329;48.402;11.718;2023-02-15T02:15:02;28.38;;;6.95;;
25391;SDS011;13329;48.402;11.718;2023-02-15T02:17:35;19.48;;;7.38;;
25391;SDS011;13329;48.402;11.718;2023-02-15T02:20:16;19.38;;;7.57;;
25391;SDS011;13329;48.402;11.718;2023-02-15T02:28:01;18.58;;;7.10;;
25391;SDS011;13329;48.402;11.718;2023-02-15T02:36:08;19.13;;;7.07;;
25391;SDS011;13329;48.402;11.718;2023-02-15T02:41:17;17.35;;;6.60;;
25391;SDS011;13329;48.402;11.718;2023-02-15T02:46:20;24.88;;;8.00;;
25391;SDS011;13329;48.402;11.718;2023-02-15T02:48:48;19.90;;;6.78;;
25391;SDS011;13329;48.402;11.718;2023-02-15T02:51:13;21.05;;;7.65;;
25391;SDS011;13329;48.402;11.718;2023-02-15T02:53:45;24.70;;;7.68;;
25391;SDS011;13329;48.402;11.718;2023-02-15T02:56:33;17.70;;;7.10;;
25391;SDS011;13329;48.402;11.718;2023-02-15T02:58:57;20.67;;;6.22;;
25391;SDS011;13329;48.402;11.718;2023-02-15T03:01:25;21.25;;;7.68;;
25391;SDS011;13329;48.402;11.718;2023-02-15T03:03:53;20.98;;;7.07;;
25391;SDS011;13329;48.402;11.718;2023-02-15T03:06:25;19.65;;;6.90;;
25391;SDS011;13329;48.402;11.718;2023-02-15T03:11:39;23.38;;;7.97;;
25391;SDS011;13329;48.402;11.718;2023-02-15T03:14:04;27.13;;;7.68;;
25391;SDS011;13329;48.402;11.718;2023-02-15T03:16:30;16.37;;;7.10;;
25391;SDS011;13329;48.402;11.718;2023-02-15T03:19:14;18.53;;;6.13;;
25391;SDS011;13329;48.402;11.718;2023-02-15T03:21:44;18.00;;;6.85;;
25391;SDS011;13329;48.402;11.718;2023-02-15T03:24:22;23.92;;;7.63;;
25391;SDS011;13329;48.402;11.718;2023-02-15T03:26:50;16.83;;;6.22;;
25391;SDS011;13329;48.402;11.718;2023-02-15T03:29:17;21.30;;;6.82;;
25391;SDS011;13329;48.402;11.718;2023-02-15T03:31:45;22.17;;;7.57;;
25391;SDS011;13329;48.402;11.718;2023-02-15T03:34:11;22.55;;;8.00;;
25391;SDS011;13329;48.402;11.718;2023-02-15T03:36:44;19.95;;;7.57;;
25391;SDS011;13329;48.402;11.718;2023-02-15T03:41:58;18.88;;;6.28;;
25391;SDS011;13329;48.402;11.718;2023-02-15T03:44:28;26.25;;;7.65;;
25391;SDS011;13329;48.402;11.718;2023-02-15T03:49:27;26.45;;;6.13;;
25391;SDS011;13329;48.402;11.718;2023-02-15T03:51:54;18.92;;;6.55;;
25391;SDS011;13329;48.402;11.718;2023-02-15T03:54:22;28.98;;;8.38;;
25391;SDS011;13329;48.402;11.718;2023-02-15T03:57:07;36.58;;;7.18;;
25391;SDS011;13329;48.402;11.718;2023-02-15T03:59:56;21.38;;;6.90;;
25391;SDS011;13329;48.402;11.718;2023-02-15T04:02:42;19.90;;;6.72;;
25391;SDS011;13329;48.402;11.718;2023-02-15T04:05:10;31.02;;;6.63;;
25391;SDS011;13329;48.402;11.718;2023-02-15T04:07:35;28.50;;;8.73;;
25391;SDS011;13329;48.402;11.718;2023-02-15T04:10:00;20.37;;;6.93;;
25391;SDS011;13329;48.402;11.718;2023-02-15T04:12:44;21.77;;;7.65;;
25391;SDS011;13329;48.402;11.718;2023-02-15T04:15:11;20.03;;;6.70;;
25391;SDS011;13329;48.402;11.718;2023-02-15T04:17:55;22.90;;;7.20;;
25391;SDS011;13329;48.402;11.718;2023-02-15T04:20:20;24.20;;;7.45;;
25391;SDS011;13329;48.402;11.718;2023-02-15T04:23:06;20.95;;;7.18;;
25391;SDS011;13329;48.402;11.718;2023-02-15T04:25:50;23.70;;;9.18;;
25391;SDS011;13329;48.402;11.718;2023-02-15T04:28:15;21.87;;;7.97;;
25391;SDS011;13329;48.402;11.718;2023-02-15T04:30:40;16.67;;;7.45;;
25391;SDS011;13329;48.402;11.718;2023-02-15T04:33:05;30.47;;;7.37;;
25391;SDS011;13329;48.402;11.718;2023-02-15T04:35:30;34.92;;;8.98;;
25391;SDS011;13329;48.402;11.718;2023-02-15T04:37:56;19.05;;;6.95;;
25391;SDS011;13329;48.402;11.718;2023-02-15T04:40:21;24.73;;;8.13;;
25391;SDS011;13329;48.402;11.718;2023-02-15T04:42:47;24.25;;;7.50;;
25391;SDS011;13329;48.402;11.718;2023-02-15T04:45:12;24.42;;;8.65;;
25391;SDS011;13329;48.402;11.718;2023-02-15T04:47:38;24.80;;;6.85;;
25391;SDS011;13329;48.402;11.718;2023-02-15T04:50:03;24.35;;;7.03;;
25391;SDS011;13329;48.402;11.718;2023-02-15T04:52:28;24.35;;;8.10;;
25391;SDS011;13329;48.402;11.718;2023-02-15T04:54:53;23.27;;;6.87;;
25391;SDS011;13329;48.402;11.718;2023-02-15T04:57:19;19.37;;;7.47;;
25391;SDS011;13329;48.402;11.718;2023-02-15T04:59:44;38.87;;;10.30;;
25391;SDS011;13329;48.402;11.718;2023-02-15T05:02:09;19.90;;;7.83;;
25391;SDS011;13329;48.402;11.718;2023-02-15T05:04:34;29.57;;;9.50;;
25391;SDS011;13329;48.402;11.718;2023-02-15T05:06:59;21.77;;;8.57;;
25391;SDS011;13329;48.402;11.718;2023-02-15T05:09:24;22.90;;;8.63;;
25391;SDS011;13329;48.402;11.718;2023-02-15T05:11:50;22.98;;;8.15;;
25391;SDS011;13329;48.402;11.718;2023-02-15T05:14:15;19.50;;;7.50;;
25391;SDS011;13329;48.402;11.718;2023-02-15T05:16:40;19.97;;;7.27;;
25391;SDS011;13329;48.402;11.718;2023-02-15T05:19:05;23.33;;;7.20;;
25391;SDS011;13329;48.402;11.718;2023-02-15T05:21:31;17.37;;;6.60;;
25391;SDS011;13329;48.402;11.718;2023-02-15T05:23:56;29.63;;;8.02;;
25391;SDS011;13329;48.402;11.718;2023-02-15T05:26:22;21.77;;;6.33;;
25391;SDS011;13329;48.402;11.718;2023-02-15T05:29:06;53.97;;;13.65;;
25391;SDS011;13329;48.402;11.718;2023-02-15T05:31:32;29.60;;;9.13;;
25391;SDS011;13329;48.402;11.718;2023-02-15T05:33:57;17.98;;;6.18;;
25391;SDS011;13329;48.402;11.718;2023-02-15T05:36:23;19.75;;;6.20;;
25391;SDS011;13329;48.402;11.718;2023-02-15T05:38:48;21.17;;;7.15;;
25391;SDS011;13329;48.402;11.718;2023-02-15T05:41:13;19.03;;;8.90;;
25391;SDS011;13329;48.402;11.718;2023-02-15T05:43:38;16.53;;;7.00;;
25391;SDS011;13329;48.402;11.718;2023-02-15T05:46:03;18.33;;;6.95;;
25391;SDS011;13329;48.402;11.718;2023-02-15T05:48:29;19.90;;;7.67;;
25391;SDS011;13329;48.402;11.718;2023-02-15T05:51:04;22.80;;;7.07;;
25391;SDS011;13329;48.402;11.718;2023-02-15T05:53:30;23.88;;;6.45;;
25391;SDS011;13329;48.402;11.718;2023-02-15T05:55:55;17.38;;;6.43;;
25391;SDS011;13329;48.402;11.718;2023-02-15T05:58:26;18.33;;;5.88;;
25391;SDS011;13329;48.402;11.718;2023-02-15T06:00:52;16.30;;;6.50;;
25391;SDS011;13329;48.402;11.718;2023-02-15T06:03:17;21.80;;;6.90;;
25391;SDS011;13329;48.402;11.718;2023-02-15T06:05:42;23.17;;;6.53;;
25391;SDS011;13329;48.402;11.718;2023-02-15T06:08:07;18.40;;;7.10;;
25391;SDS011;13329;48.402;11.718;2023-02-15T06:10:33;25.35;;;8.07;;
25391;SDS011;13329;48.402;11.718;2023-02-15T06:12:58;20.80;;;7.50;;
25391;SDS011;13329;48.402;11.718;2023-02-15T06:15:23;20.40;;;7.47;;
25391;SDS011;13329;48.402;11.718;2023-02-15T06:17:48;21.87;;;7.50;;
25391;SDS011;13329;48.402;11.718;2023-02-15T06:20:13;19.73;;;7.57;;
25391;SDS011;13329;48.402;11.718;2023-02-15T06:22:38;21.77;;;8.63;;
25391;SDS011;13329;48.402;11.718;2023-02-15T06:25:04;22.43;;;8.40;;
25391;SDS011;13329;48.402;11.718;2023-02-15T06:27:29;24.48;;;8.77;;
25391;SDS011;13329;48.402;11.718;2023-02-15T06:29:54;23.03;;;7.30;;
25391;SDS011;13329;48.402;11.718;2023-02-15T06:32:19;35.05;;;7.63;;
25391;SDS011;13329;48.402;11.718;2023-02-15T06:34:44;21.17;;;7.30;;
25391;SDS011;13329;48.402;11.718;2023-02-15T06:37:10;24.75;;;7.75;;
25391;SDS011;13329;48.402;11.718;2023-02-15T06:39:35;22.30;;;6.90;;
25391;SDS011;13329;48.402;11.718;2023-02-15T06:42:00;17.13;;;6.00;;
25391;SDS011;13329;48.402;11.718;2023-02-15T06:44:25;22.00;;;6.80;;
25391;SDS011;13329;48.402;11.718;2023-02-15T06:46:50;22.77;;;7.22;;
25391;SDS011;13329;48.402;11.718;2023-02-15T06:49:16;20.00;;;6.93;;
25391;SDS011;13329;48.402;11.718;2023-02-15T06:51:41;26.27;;;9.03;;
25391;SDS011;13329;48.402;11.718;2023-02-15T06:54:06;23.07;;;7.53;;
25391;SDS011;13329;48.402;11.718;2023-02-15T06:56:31;28.20;;;9.33;;
25391;SDS011;13329;48.402;11.718;2023-02-15T06:58:56;23.17;;;8.33;;
25391;SDS011;13329;48.402;11.718;2023-02-15T07:01:21;23.13;;;7.53;;
25391;SDS011;13329;48.402;11.718;2023-02-15T07:03:47;28.93;;;8.43;;
25391;SDS011;13329;48.402;11.718;2023-02-15T07:06:12;23.90;;;8.77;;
25391;SDS011;13329;48.402;11.718;2023-02-15T07:08:37;34.27;;;8.93;;
25391;SDS011;13329;48.402;11.718;2023-02-15T07:11:03;21.45;;;6.53;;
25391;SDS011;13329;48.402;11.718;2023-02-15T07:13:47;13.93;;;7.15;;
25391;SDS011;13329;48.402;11.718;2023-02-15T07:16:12;18.75;;;7.40;;
25391;SDS011;13329;48.402;11.718;2023-02-15T07:18:38;27.27;;;7.23;;
25391;SDS011;13329;48.402;11.718;2023-02-15T07:21:03;27.50;;;8.85;;
25391;SDS011;13329;48.402;11.718;2023-02-15T07:23:29;24.65;;;8.15;;
25391;SDS011;13329;48.402;11.718;2023-02-15T07:25:57;25.13;;;8.40;;
25391;SDS011;13329;48.402;11.718;2023-02-15T07:28:23;40.10;;;10.43;;
25391;SDS011;13329;48.402;11.718;2023-02-15T07:30:48;27.87;;;10.43;;
25391;SDS011;13329;48.402;11.718;2023-02-15T07:33:13;21.80;;;8.30;;
25391;SDS011;13329;48.402;11.718;2023-02-15T07:35:55;30.00;;;8.88;;
25391;SDS011;13329;48.402;11.718;2023-02-15T07:38:22;27.92;;;8.40;;
25391;SDS011;13329;48.402;11.718;2023-02-15T07:40:48;22.08;;;7.00;;
25391;SDS011;13329;48.402;11.718;2023-02-15T07:43:13;47.03;;;9.40;;
25391;SDS011;13329;48.402;11.718;2023-02-15T07:45:38;28.10;;;9.37;;
25391;SDS011;13329;48.402;11.718;2023-02-15T07:48:04;28.87;;;9.27;;
25391;SDS011;13329;48.402;11.718;2023-02-15T07:50:29;27.80;;;9.18;;
25391;SDS011;13329;48.402;11.718;2023-02-15T07:52:54;33.15;;;9.57;;
25391;SDS011;13329;48.402;11.718;2023-02-15T07:55:19;32.27;;;9.90;;
25391;SDS011;13329;48.402;11.718;2023-02-15T07:57:46;30.65;;;8.45;;
25391;SDS011;13329;48.402;11.718;2023-02-15T08:00:12;15.10;;;5.00;;
25391;SDS011;13329;48.402;11.718;2023-02-15T08:02:38;8.43;;;4.05;;
25391;SDS011;13329;48.402;11.718;2023-02-15T08:05:03;25.60;;;7.33;;
25391;SDS011;13329;48.402;11.718;2023-02-15T08:07:28;25.60;;;8.73;;
25391;SDS011;13329;48.402;11.718;2023-02-15T08:09:53;17.77;;;6.97;;
25391;SDS011;13329;48.402;11.718;2023-02-15T08:12:19;28.80;;;8.02;;
25391;SDS011;13329;48.402;11.718;2023-02-15T08:14:44;29.67;;;8.90;;
25391;SDS011;13329;48.402;11.718;2023-02-15T08:17:09;28.10;;;7.97;;
25391;SDS011;13329;48.402;11.718;2023-02-15T08:19:34;27.97;;;7.87;;
25391;SDS011;13329;48.402;11.718;2023-02-15T08:22:01;26.85;;;9.10;;
25391;SDS011;13329;48.402;11.718;2023-02-15T08:24:28;38.38;;;9.43;;
25391;SDS011;13329;48.402;11.718;2023-02-15T08:26:54;28.50;;;9.38;;
25391;SDS011;13329;48.402;11.718;2023-02-15T08:29:24;48.95;;;9.48;;
25391;SDS011;13329;48.402;11.718;2023-02-15T08:31:50;25.88;;;9.23;;
25391;SDS011;13329;48.402;11.718;2023-02-15T08:34:16;41.63;;;12.82;;
25391;SDS011;13329;48.402;11.718;2023-02-15T08:36:41;27.70;;;10.27;;
25391;SDS011;13329;48.402;11.718;2023-02-15T08:39:06;40.88;;;9.88;;
25391;SDS011;13329;48.402;11.718;2023-02-15T08:41:35;28.80;;;9.68;;
25391;SDS011;13329;48.402;11.718;2023-02-15T08:44:01;26.55;;;8.85;;
25391;SDS011;13329;48.402;11.718;2023-02-15T08:46:28;33.03;;;9.82;;
25391;SDS011;13329;48.402;11.718;2023-02-15T08:48:53;40.60;;;13.35;;
25391;SDS011;13329;48.402;11.718;2023-02-15T08:51:20;24.33;;;9.23;;
25391;SDS011;13329;48.402;11.718;2023-02-15T08:53:47;29.05;;;9.00;;
25391;SDS011;13329;48.402;11.718;2023-02-15T08:56:16;24.33;;;8.95;;
25391;SDS011;13329;48.402;11.718;2023-02-15T08:58:41;25.13;;;9.18;;
25391;SDS011;13329;48.402;11.718;2023-02-15T09:01:10;26.27;;;10.05;;
25391;SDS011;13329;48.402;11.718;2023-02-15T09:03:35;38.95;;;9.20;;
25391;SDS011;13329;48.402;11.718;2023-02-15T09:06:00;46.63;;;8.07;;
25391;SDS011;13329;48.402;11.718;2023-02-15T09:08:26;22.92;;;10.02;;
25391;SDS011;13329;48.402;11.718;2023-02-15T09:10:51;31.40;;;9.30;;
25391;SDS011;13329;48.402;11.718;2023-02-15T09:13:16;29.05;;;9.60;;
25391;SDS011;13329;48.402;11.718;2023-02-15T09:15:41;27.65;;;10.07;;
25391;SDS011;13329;48.402;11.718;2023-02-15T09:18:07;23.93;;;8.30;;
25391;SDS011;13329;48.402;11.718;2023-02-15T09:20:35;23.42;;;7.72;;
25391;SDS011;13329;48.402;11.718;2023-02-15T09:23:00;20.55;;;7.55;;
25391;SDS011;13329;48.402;11.718;2023-02-15T09:25:25;22.23;;;7.40;;
25391;SDS011;13329;48.402;11.718;2023-02-15T09:27:51;25.70;;;8.45;;
25391;SDS011;13329;48.402;11.718;2023-02-15T09:30:16;25.90;;;8.53;;
25391;SDS011;13329;48.402;11.718;2023-02-15T09:32:41;32.47;;;9.67;;
25391;SDS011;13329;48.402;11.718;2023-02-15T09:35:06;28.17;;;9.07;;
25391;SDS011;13329;48.402;11.718;2023-02-15T09:37:31;27.45;;;9.80;;
25391;SDS011;13329;48.402;11.718;2023-02-15T09:39:57;28.27;;;9.23;;
25391;SDS011;13329;48.402;11.718;2023-02-15T09:50:07;14.80;;;7.63;;
25391;SDS011;13329;48.402;11.718;2023-02-15T10:10:46;52.20;;;11.50;;
25391;SDS011;13329;48.402;11.718;2023-02-15T10:15:58;35.92;;;12.23;;
25391;SDS011;13329;48.402;11.718;2023-02-15T10:26:12;29.23;;;10.33;;
25391;SDS011;13329;48.402;11.718;2023-02-15T10:31:17;28.27;;;10.63;;
25391;SDS011;13329;48.402;11.718;2023-02-15T10:33:47;26.17;;;8.77;;
25391;SDS011;13329;48.402;11.718;2023-02-15T10:36:26;31.60;;;10.98;;
25391;SDS011;13329;48.402;11.718;2023-02-15T10:41:31;25.98;;;9.35;;
25391;SDS011;13329;48.402;11.718;2023-02-15T10:46:49;27.42;;;9.88;;
25391;SDS011;13329;48.402;11.718;2023-02-15T10:49:22;31.80;;;9.77;;
25391;SDS011;13329;48.402;11.718;2023-02-15T10:56:51;21.30;;;8.03;;
25391;SDS011;13329;48.402;11.718;2023-02-15T11:01:55;20.95;;;8.75;;
25391;SDS011;13329;48.402;11.718;2023-02-15T11:06:55;30.95;;;9.77;;
25391;SDS011;13329;48.402;11.718;2023-02-15T11:09:23;25.58;;;8.98;;
25391;SDS011;13329;48.402;11.718;2023-02-15T11:11:50;24.50;;;9.48;;
25391;SDS011;13329;48.402;11.718;2023-02-15T11:14:20;26.98;;;10.00;;
25391;SDS011;13329;48.402;11.718;2023-02-15T11:16:49;26.63;;;9.52;;
25391;SDS011;13329;48.402;11.718;2023-02-15T11:21:43;27.30;;;10.07;;
25391;SDS011;13329;48.402;11.718;2023-02-15T11:24:10;28.17;;;9.40;;
25391;SDS011;13329;48.402;11.718;2023-02-15T11:31:53;27.88;;;9.88;;
25391;SDS011;13329;48.402;11.718;2023-02-15T11:34:21;24.80;;;9.38;;
25391;SDS011;13329;48.402;11.718;2023-02-15T11:36:47;27.20;;;9.55;;
25391;SDS011;13329;48.402;11.718;2023-02-15T11:39:15;28.98;;;9.60;;
25391;SDS011;13329;48.402;11.718;2023-02-15T11:41:41;33.70;;;10.35;;
25391;SDS011;13329;48.402;11.718;2023-02-15T11:44:16;25.38;;;9.70;;
25391;SDS011;13329;48.402;11.718;2023-02-15T11:46:42;32.03;;;11.38;;
25391;SDS011;13329;48.402;11.718;2023-02-15T11:52:04;34.92;;;11.45;;
25391;SDS011;13329;48.402;11.718;2023-02-15T11:54:33;28.52;;;9.90;;
25391;SDS011;13329;48.402;11.718;2023-02-15T11:57:03;29.70;;;10.98;;
25391;SDS011;13329;48.402;11.718;2023-02-15T11:59:31;33.97;;;11.80;;
25391;SDS011;13329;48.402;11.718;2023-02-15T12:01:58;32.03;;;12.80;;
25391;SDS011;13329;48.402;11.718;2023-02-15T12:04:56;33.72;;;11.88;;
25391;SDS011;13329;48.402;11.718;2023-02-15T12:07:57;31.30;;;11.63;;
25391;SDS011;13329;48.402;11.718;2023-02-15T12:10:04;45.28;;;14.02;;
25391;SDS011;13329;48.402;11.718;2023-02-15T12:12:32;35.22;;;12.90;;
25391;SDS011;13329;48.402;11.718;2023-02-15T12:14:59;44.60;;;14.75;;
25391;SDS011;13329;48.402;11.718;2023-02-15T12:17:26;37.55;;;13.93;;
25391;SDS011;13329;48.402;11.718;2023-02-15T12:19:52;36.90;;;12.98;;
25391;SDS011;13329;48.402;11.718;2023-02-15T12:22:22;37.90;;;14.57;;
25391;SDS011;13329;48.402;11.718;2023-02-15T12:24:48;38.38;;;12.90;;
25391;SDS011;13329;48.402;11.718;2023-02-15T12:27:17;36.75;;;13.30;;
25391;SDS011;13329;48.402;11.718;2023-02-15T12:29:56;41.53;;;13.55;;
25391;SDS011;13329;48.402;11.718;2023-02-15T12:32:24;40.15;;;14.73;;
25391;SDS011;13329;48.402;11.718;2023-02-15T12:34:50;35.95;;;12.68;;
25391;SDS011;13329;48.402;11.718;2023-02-15T12:37:20;34.97;;;12.32;;
25391;SDS011;13329;48.402;11.718;2023-02-15T12:39:53;35.25;;;12.30;;
25391;SDS011;13329;48.402;11.718;2023-02-15T12:42:18;37.53;;;12.20;;
25391;SDS011;13329;48.402;11.718;2023-02-15T12:44:52;31.45;;;11.98;;
25391;SDS011;13329;48.402;11.718;2023-02-15T12:47:18;28.50;;;10.45;;
25391;SDS011;13329;48.402;11.718;2023-02-15T12:49:44;33.35;;;12.05;;
25391;SDS011;13329;48.402;11.718;2023-02-15T12:54:47;37.22;;;12.15;;
25391;SDS011;13329;48.402;11.718;2023-02-15T12:59:51;37.63;;;11.30;;
25391;SDS011;13329;48.402;11.718;2023-02-15T13:02:19;30.50;;;12.05;;
25391;SDS011;13329;48.402;11.718;2023-02-15T13:04:47;40.97;;;15.00;;
25391;SDS011;13329;48.402;11.718;2023-02-15T13:07:13;38.30;;;15.02;;
25391;SDS011;13329;48.402;11.718;2023-02-15T13:09:38;35.05;;;13.75;;
25391;SDS011;13329;48.402;11.718;2023-02-15T13:12:14;30.80;;;12.32;;
25391;SDS011;13329;48.402;11.718;2023-02-15T13:14:43;28.25;;;11.77;;
25391;SDS011;13329;48.402;11.718;2023-02-15T13:17:09;36.60;;;12.82;;
25391;SDS011;13329;48.402;11.718;2023-02-15T13:19:36;28.30;;;10.55;;
25391;SDS011;13329;48.402;11.718;2023-02-15T13:22:02;27.73;;;10.80;;
25391;SDS011;13329;48.402;11.718;2023-02-15T13:24:32;30.13;;;10.90;;
25391;SDS011;13329;48.402;11.718;2023-02-15T13:26:58;37.70;;;13.63;;
25391;SDS011;13329;48.402;11.718;2023-02-15T13:29:25;26.27;;;11.27;;
25391;SDS011;13329;48.402;11.718;2023-02-15T13:31:51;33.38;;;12.38;;
25391;SDS011;13329;48.402;11.718;2023-02-15T13:34:25;32.95;;;11.70;;
25391;SDS011;13329;48.402;11.718;2023-02-15T13:36:54;28.98;;;10.95;;
25391;SDS011;13329;48.402;11.718;2023-02-15T13:39:34;34.70;;;11.70;;
25391;SDS011;13329;48.402;11.718;2023-02-15T13:52:22;31.75;;;12.15;;
25391;SDS011;13329;48.402;11.718;2023-02-15T14:02:49;36.55;;;13.80;;
25391;SDS011;13329;48.402;11.718;2023-02-15T14:05:23;74.40;;;22.73;;
25391;SDS011;13329;48.402;11.718;2023-02-15T14:10:46;48.58;;;17.73;;
25391;SDS011;13329;48.402;11.718;2023-02-15T14:16:03;39.10;;;13.43;;
25391;SDS011;13329;48.402;11.718;2023-02-15T14:18:49;38.00;;;14.65;;
25391;SDS011;13329;48.402;11.718;2023-02-15T14:31:18;33.22;;;11.52;;
25391;SDS011;13329;48.402;11.718;2023-02-15T14:33:55;28.58;;;11.50;;
25391;SDS011;13329;48.402;11.718;2023-02-15T14:36:21;36.00;;;11.88;;
25391;SDS011;13329;48.402;11.718;2023-02-15T14:41:35;38.30;;;15.05;;
25391;SDS011;13329;48.402;11.718;2023-02-15T14:44:10;26.75;;;11.05;;
25391;SDS011;13329;48.402;11.718;2023-02-15T14:49:12;33.40;;;11.73;;
25391;SDS011;13329;48.402;11.718;2023-02-15T14:56:39;27.50;;;10.27;;
25391;SDS011;13329;48.402;11.718;2023-02-15T14:59:12;27.93;;;11.13;;
25391;SDS011;13329;48.402;11.718;2023-02-15T15:01:38;31.80;;;10.13;;
25391;SDS011;13329;48.402;11.718;2023-02-15T15:04:05;20.77;;;9.23;;
25391;SDS011;13329;48.402;11.718;2023-02-15T15:06:33;21.42;;;9.02;;
25391;SDS011;13329;48.402;11.718;2023-02-15T15:09:21;28.35;;;10.60;;
25391;SDS011;13329;48.402;11.718;2023-02-15T15:11:49;27.58;;;9.27;;
25391;SDS011;13329;48.402;11.718;2023-02-15T15:22:12;27.25;;;10.07;;
25391;SDS011;13329;48.402;11.718;2023-02-15T15:29:50;24.60;;;10.40;;
25391;SDS011;13329;48.402;11.718;2023-02-15T15:32:16;27.00;;;9.33;;
25391;SDS011;13329;48.402;11.718;2023-02-15T15:37:19;22.98;;;9.93;;
25391;SDS011;13329;48.402;11.718;2023-02-15T15:39:57;22.63;;;8.60;;
25391;SDS011;13329;48.402;11.718;2023-02-15T15:42:30;25.73;;;10.25;;
25391;SDS011;13329;48.402;11.718;2023-02-15T15:45:08;28.10;;;10.50;;
25391;SDS011;13329;48.402;11.718;2023-02-15T15:50:12;29.00;;;10.00;;
25391;SDS011;13329;48.402;11.718;2023-02-15T15:52:37;29.20;;;10.15;;
25391;SDS011;13329;48.402;11.718;2023-02-15T15:55:05;26.30;;;11.23;;
25391;SDS011;13329;48.402;11.718;2023-02-15T15:57:39;35.50;;;11.60;;
25391;SDS011;13329;48.402;11.718;2023-02-15T16:00:20;27.92;;;11.57;;
25391;SDS011;13329;48.402;11.718;2023-02-15T16:05:14;26.27;;;9.35;;
25391;SDS011;13329;48.402;11.718;2023-02-15T16:07:40;31.83;;;11.13;;
25391;SDS011;13329;48.402;11.718;2023-02-15T16:10:06;26.20;;;10.82;;
25391;SDS011;13329;48.402;11.718;2023-02-15T16:12:33;36.28;;;11.43;;
25391;SDS011;13329;48.402;11.718;2023-02-15T16:17:44;34.47;;;11.93;;
25391;SDS011;13329;48.402;11.718;2023-02-15T16:22:38;34.10;;;11.93;;
25391;SDS011;13329;48.402;11.718;2023-02-15T16:27:44;40.10;;;13.98;;
25391;SDS011;13329;48.402;11.718;2023-02-15T16:30:43;33.45;;;13.25;;
25391;SDS011;13329;48.402;11.718;2023-02-15T16:35:29;40.60;;;14.73;;
25391;SDS011;13329;48.402;11.718;2023-02-15T16:37:55;45.05;;;13.45;;
25391;SDS011;13329;48.402;11.718;2023-02-15T16:42:49;47.65;;;15.38;;
25391;SDS011;13329;48.402;11.718;2023-02-15T16:45:15;36.58;;;13.20;;
25391;SDS011;13329;48.402;11.718;2023-02-15T16:47:43;41.97;;;14.75;;
25391;SDS011;13329;48.402;11.718;2023-02-15T16:50:16;35.97;;;12.80;;
25391;SDS011;13329;48.402;11.718;2023-02-15T16:52:42;35.75;;;12.82;;
25391;SDS011;13329;48.402;11.718;2023-02-15T16:55:17;43.10;;;14.38;;
25391;SDS011;13329;48.402;11.718;2023-02-15T16:57:44;41.88;;;12.88;;
25391;SDS011;13329;48.402;11.718;2023-02-15T17:00:20;38.03;;;12.25;;
25391;SDS011;13329;48.402;11.718;2023-02-15T17:02:55;39.50;;;12.13;;
25391;SDS011;13329;48.402;11.718;2023-02-15T17:05:23;36.10;;;12.25;;
25391;SDS011;13329;48.402;11.718;2023-02-15T17:07:50;43.03;;;12.48;;
25391;SDS011;13329;48.402;11.718;2023-02-15T17:10:37;34.75;;;12.30;;
25391;SDS011;13329;48.402;11.718;2023-02-15T17:13:10;38.35;;;13.38;;
25391;SDS011;13329;48.402;11.718;2023-02-15T17:15:37;42.35;;;13.50;;
25391;SDS011;13329;48.402;11.718;2023-02-15T17:20:27;39.10;;;13.13;;